Portada
METAR-TAF:

METAR-TAF

Aeroports :

Aeroport Internacional de Xangai-Pudong

Xangai-Pudong, Xina

latitud: 31-07N, longitud: 121-46E, altitud: 4 m

Observació

L'informe es va fer fa 38 minuts, a les 01:00 UTC
Vent 10 kt del Sud
Temperatura 28°C
Humitat 40%
Pressió 1014 hPa
Visibilitat 10 km o més
sense núvols per sota de 1500 mi sense presència de cumulonimbus.

METAR: ZSPD 240100Z 18005MPS CAVOK 28/13 Q1014 NOSIG

Hora: 09:38 (01:38 UTC)

Pronòstic

L'informe es va fer fa 4 hores i 25 minuts, a les 21:13 UTC
Pronòstic vàlid del 24 a les 00 UTC al 24 a les 24 UTC
Vent 8 kt del Sud/Sud-Est
Visibilitat: 5000 m
Núvols disperses a una alçada de 2000 ft
calitja

TAF: ZSPD 232113Z 2400/2424 16004MPS 5000 HZ SCT020 TX33/2406Z TN19/2421Z

Observacions i pronòstics meteorològics de més de 4000 aeroports (METAR i TAF).

Les estacions disponibles són els punts grocs i vermells al mapa.

Posi el ratolí al punt desitjat per veure el nom de l'estació.

Feu clic per veure les observacions i els pronòstics meteorològics.

Per canviar el mapa: feu clic els botons verds amb una creu de color negre per apropar; al botó verd amb un guió per allunyar la imatge; o en les fletxes verdes per a mapes adjacents.


METAR-TAF: